Time;durP1;ratioP1;P1;durP2;ratioP2;P2;SDS_P1;SDS_P2;PMS_P1;PMS_P2;Temp;Humidity;BMP_temperature;BMP_pressure;BME280_temperature;BME280_humidity;BME280_pressure;Samples;Min_cycle;Max_cycle;Signal;HPM_P1;HPM_P2
2022/04/13 00:01:34;;;;;;;11.53;2.10;;;;;;;12.59;100.00;101187.75;4883779;29;20493;-86
2022/04/13 00:04:03;;;;;;;10.07;2.17;;;;;;;12.54;100.00;101190.22;4883459;29;20454;-88
2022/04/13 00:06:31;;;;;;;12.40;2.10;;;;;;;12.51;100.00;101193.38;4913984;29;20533;-88
2022/04/13 00:09:00;;;;;;;9.73;1.60;;;;;;;12.44;100.00;101202.38;4899702;29;20450;-88
2022/04/13 00:11:28;;;;;;;8.67;1.67;;;;;;;12.40;100.00;101197.47;4883430;29;20445;-88
2022/04/13 00:14:04;;;;;;;17.23;2.50;;;;;;;12.33;100.00;101185.56;4914064;29;20465;-88
2022/04/13 00:16:32;;;;;;;13.77;2.20;;;;;;;12.32;100.00;101189.34;4882695;29;20445;-88
2022/04/13 00:19:02;;;;;;;14.67;2.30;;;;;;;12.26;100.00;101188.25;4869072;29;20501;-88
2022/04/13 00:21:30;;;;;;;9.13;1.93;;;;;;;12.30;100.00;101200.53;4848828;29;20577;-88
2022/04/13 00:24:05;;;;;;;5.63;1.80;;;;;;;12.25;100.00;101197.53;4879558;29;20447;-88
2022/04/13 00:26:33;;;;;;;13.93;2.93;;;;;;;12.25;100.00;101202.16;4863566;29;20450;-88
2022/04/13 00:29:09;;;;;;;8.50;2.50;;;;;;;12.12;100.00;101189.16;4851721;29;20478;-88
2022/04/13 00:31:39;;;;;;;14.23;1.70;;;;;;;12.20;100.00;101205.47;4898985;29;20536;-88
2022/04/13 00:34:10;;;;;;;16.87;2.40;;;;;;;12.18;100.00;101210.28;4865552;29;20839;-86
2022/04/13 00:36:38;;;;;;;5.63;1.40;;;;;;;12.12;100.00;101208.34;4882647;29;20486;-88
2022/04/13 00:39:06;;;;;;;17.47;2.00;;;;;;;12.09;100.00;101208.72;4851700;29;20474;-89
2022/04/13 00:41:35;;;;;;;10.80;2.30;;;;;;;12.04;100.00;101208.44;4883235;29;20445;-86
2022/04/13 00:44:08;;;;;;;14.53;1.80;;;;;;;11.94;100.00;101191.44;4867701;29;20821;-86
2022/04/13 00:46:36;;;;;;;12.80;2.40;;;;;;;11.98;100.00;101206.47;4867848;29;20526;-87
2022/04/13 00:49:07;;;;;;;9.80;3.20;;;;;;;11.94;100.00;101218.84;4866966;29;20452;-87
2022/04/13 00:51:38;;;;;;;13.27;1.70;;;;;;;11.96;100.00;101219.50;4864246;29;20454;-86
2022/04/13 00:54:18;;;;;;;11.00;3.00;;;;;;;12.01;100.00;101217.03;4898157;29;20470;-87
2022/04/13 00:56:48;;;;;;;15.10;2.93;;;;;;;12.01;100.00;101197.84;4867362;29;20454;-87
2022/04/13 00:59:25;;;;;;;7.70;2.47;;;;;;;12.10;100.00;101211.28;4882434;29;20477;-86
2022/04/13 01:02:02;;;;;;;8.43;2.53;;;;;;;12.16;100.00;101208.78;4882939;29;20438;-87
2022/04/13 01:04:30;;;;;;;14.77;2.30;;;;;;;12.18;100.00;101202.06;4881551;29;20960;-87
2022/04/13 01:06:59;;;;;;;10.07;1.80;;;;;;;12.17;100.00;101205.84;4897685;29;20450;-87
2022/04/13 01:09:32;;;;;;;9.63;2.23;;;;;;;12.16;100.00;101187.72;4881787;29;20450;-87
2022/04/13 01:12:02;;;;;;;20.23;1.93;;;;;;;12.19;100.00;101187.31;4882162;29;20474;-87
2022/04/13 01:14:31;;;;;;;5.70;1.70;;;;;;;12.16;100.00;101193.19;4897779;29;20434;-87
2022/04/13 01:16:59;;;;;;;14.37;2.10;;;;;;;12.17;100.00;101183.94;4897420;29;20887;-86
2022/04/13 01:19:31;;;;;;;11.93;2.07;;;;;;;12.07;100.00;101177.94;4897259;29;20528;-86
2022/04/13 01:22:03;;;;;;;7.43;1.80;;;;;;;12.09;100.00;101182.19;4902588;29;20503;-86
2022/04/13 01:24:40;;;;;;;8.10;2.60;;;;;;;12.12;100.00;101189.16;4894287;29;20966;-87
2022/04/13 01:27:18;;;;;;;8.30;1.80;;;;;;;12.13;100.00;101185.34;4894006;29;20533;-87
2022/04/13 01:29:46;;;;;;;8.10;1.93;;;;;;;12.15;100.00;101180.53;4894012;29;20453;-87
2022/04/13 01:32:17;;;;;;;10.27;1.77;;;;;;;12.15;100.00;101183.25;4868781;29;20450;-87
2022/04/13 01:34:52;;;;;;;11.60;2.30;;;;;;;12.15;100.00;101180.53;4860591;29;20436;-86
2022/04/13 01:37:22;;;;;;;12.90;2.30;;;;;;;12.21;100.00;101178.91;4874983;29;20564;-87
2022/04/13 01:39:50;;;;;;;11.30;2.03;;;;;;;12.25;100.00;101170.13;4848302;29;20486;-87
2022/04/13 01:42:25;;;;;;;8.83;2.40;;;;;;;12.28;100.00;101166.16;4863327;29;20806;-87
2022/04/13 01:44:52;;;;;;;7.97;2.00;;;;;;;12.33;100.00;101172.72;4878389;29;20450;-87
2022/04/13 01:47:18;;;;;;;10.37;2.30;;;;;;;12.34;100.00;101171.66;4847949;29;20438;-87
2022/04/13 01:49:47;;;;;;;14.43;2.37;;;;;;;12.34;100.00;101173.56;4847763;29;21048;-87
2022/04/13 01:52:15;;;;;;;10.03;2.00;;;;;;;12.30;100.00;101188.72;4879115;29;20443;-86
2022/04/13 01:54:49;;;;;;;5.67;2.07;;;;;;;12.28;100.00;101188.91;4863190;29;20446;-86
2022/04/13 01:57:23;;;;;;;7.33;1.77;;;;;;;12.26;100.00;101198.38;4847921;29;20477;-87
2022/04/13 01:59:53;;;;;;;12.47;2.30;;;;;;;12.24;100.00;101195.81;4878507;29;20850;-87
2022/04/13 02:02:23;;;;;;;9.13;2.27;;;;;;;12.25;100.00;101203.00;4878704;29;20521;-87
2022/04/13 02:04:59;;;;;;;8.17;1.80;;;;;;;12.24;100.00;101193.09;4862998;29;20449;-87
2022/04/13 02:07:35;;;;;;;18.20;2.23;;;;;;;12.18;100.00;101193.84;4878087;29;20541;-86
2022/04/13 02:10:05;;;;;;;10.73;1.80;;;;;;;12.17;100.00;101205.00;4893298;29;20438;-87
2022/04/13 02:12:34;;;;;;;7.43;1.70;;;;;;;12.05;100.00;101202.78;4908725;29;20456;-87
2022/04/13 02:15:27;;;;;;;10.97;1.93;;;;;;;12.03;100.00;101198.53;4806819;29;20517;-86
2022/04/13 02:18:14;;;;;;;7.93;1.77;;;;;;;12.04;100.00;101211.19;4777938;30;20813;-86
2022/04/13 02:20:43;;;;;;;7.77;2.10;;;;;;;12.00;100.00;101204.38;4760494;30;21013;-87
2022/04/13 02:23:13;;;;;;;14.57;1.83;;;;;;;11.92;100.00;101207.25;4821349;29;21112;-86
2022/04/13 02:25:41;;;;;;;7.63;1.73;;;;;;;11.93;100.00;101209.75;4810350;29;20477;-87
2022/04/13 02:28:10;;;;;;;9.83;1.90;;;;;;;11.91;100.00;101216.50;4810661;29;20522;-87
2022/04/13 02:30:45;;;;;;;12.70;2.73;;;;;;;11.84;100.00;101212.81;4810092;29;20457;-87
2022/04/13 02:33:21;;;;;;;12.83;1.77;;;;;;;11.76;100.00;101200.06;4833123;29;20449;-86
2022/04/13 02:35:49;;;;;;;7.83;2.33;;;;;;;11.76;100.00;101214.59;4899202;29;20552;-87
2022/04/13 02:38:18;;;;;;;11.10;2.17;;;;;;;11.79;100.00;101212.53;4899922;29;20533;-87
2022/04/13 02:40:46;;;;;;;5.93;1.83;;;;;;;11.74;100.00;101202.97;4901764;29;20519;-87
2022/04/13 02:43:16;;;;;;;17.53;4.27;;;;;;;11.79;100.00;101201.56;4901562;29;20459;-86
2022/04/13 02:45:53;;;;;;;11.03;1.77;;;;;;;11.77;100.00;101205.34;4916133;29;20824;-87
2022/04/13 02:48:36;;;;;;;9.40;2.20;;;;;;;11.74;100.00;101197.47;4899439;29;20493;-87
2022/04/13 02:51:10;;;;;;;8.97;1.97;;;;;;;11.77;100.00;101193.53;4869179;29;20456;-86
2022/04/13 02:53:39;;;;;;;14.30;2.57;;;;;;;11.75;100.00;101184.63;4884505;29;20797;-86
2022/04/13 02:56:07;;;;;;;11.80;2.90;;;;;;;11.77;100.00;101177.13;4901028;29;20505;-86
2022/04/13 02:58:37;;;;;;;6.50;1.67;;;;;;;11.87;100.00;101188.63;4901211;29;20484;-87
2022/04/13 03:01:06;;;;;;;6.63;1.93;;;;;;;11.89;100.00;101186.56;4850919;29;20486;-87
2022/04/13 03:03:36;;;;;;;14.30;1.80;;;;;;;11.94;100.00;101196.91;4868963;29;20446;-87
2022/04/13 03:06:04;;;;;;;7.23;2.70;;;;;;;12.00;100.00;101182.47;4884367;29;20482;-87
2022/04/13 03:08:34;;;;;;;10.50;2.30;;;;;;;12.03;100.00;101190.31;4884339;29;20456;-85
2022/04/13 03:11:03;;;;;;;6.27;1.90;;;;;;;11.99;100.00;101186.25;4880053;29;20525;-86
2022/04/13 03:13:30;;;;;;;16.60;2.30;;;;;;;11.93;100.00;101187.03;4853741;29;20453;-87
2022/04/13 03:16:03;;;;;;;7.43;2.03;;;;;;;11.88;100.00;101186.75;4869570;29;20454;-88
2022/04/13 03:18:33;;;;;;;3.73;1.80;;;;;;;11.81;100.00;101186.66;4872785;29;20446;-86
2022/04/13 03:21:09;;;;;;;10.20;2.33;;;;;;;11.72;100.00;101185.03;4887502;29;20514;-86
2022/04/13 03:23:43;;;;;;;10.53;2.23;;;;;;;11.67;100.00;101180.13;4870295;29;20949;-87
2022/04/13 03:26:11;;;;;;;3.73;1.57;;;;;;;11.63;100.00;101184.28;4884111;29;20469;-86
2022/04/13 03:28:40;;;;;;;14.50;2.53;;;;;;;11.61;100.00;101178.16;4869256;29;20948;-87
2022/04/13 03:31:09;;;;;;;13.13;3.43;;;;;;;11.59;100.00;101176.63;4854163;29;20528;-86
2022/04/13 03:33:45;;;;;;;13.57;3.00;;;;;;;11.59;100.00;101185.69;4869093;29;20473;-86
2022/04/13 03:36:14;;;;;;;8.20;2.30;;;;;;;11.63;100.00;101180.69;4900921;29;20469;-87
2022/04/13 03:38:46;;;;;;;20.03;2.30;;;;;;;11.63;100.00;101176.06;4853992;29;20497;-87
2022/04/13 03:41:19;;;;;;;6.60;1.67;;;;;;;11.67;100.00;101185.59;4884429;29;20516;-86
2022/04/13 03:43:49;;;;;;;8.83;3.17;;;;;;;11.72;100.00;101185.03;4869386;29;20577;-87
2022/04/13 03:46:19;;;;;;;19.63;2.30;;;;;;;11.80;100.00;101170.41;4852648;29;20925;-86
2022/04/13 03:48:48;;;;;;;20.17;4.43;;;;;;;12.01;100.00;101175.94;4853221;29;20456;-87
2022/04/13 03:51:23;;;;;;;14.10;3.10;;;;;;;12.14;100.00;101164.28;4853131;29;20454;-87
2022/04/13 03:53:53;;;;;;;17.30;2.60;;;;;;;12.32;100.00;101179.25;4882940;29;20544;-87
2022/04/13 03:56:26;;;;;;;16.03;2.30;;;;;;;12.47;100.00;101178.34;4883559;29;20448;-88
2022/04/13 03:58:53;;;;;;;13.97;3.07;;;;;;;12.51;100.00;101174.19;4894060;29;20458;-86
2022/04/13 04:01:27;;;;;;;18.37;2.77;;;;;;;12.55;100.00;101169.97;4883412;29;20476;-86
2022/04/13 04:03:57;;;;;;;14.53;2.40;;;;;;;12.55;100.00;101176.31;4901194;29;20453;-86
2022/04/13 04:06:28;;;;;;;14.00;2.50;;;;;;;12.56;100.00;101177.16;4884209;29;20450;-86
2022/04/13 04:08:57;;;;;;;16.40;4.03;;;;;;;12.49;100.00;101176.28;4913832;29;20442;-86
2022/04/13 04:11:38;;;;;;;27.13;2.93;;;;;;;12.42;100.00;101173.44;4882650;29;20476;-86
2022/04/13 04:14:08;;;;;;;16.10;2.70;;;;;;;12.31;100.00;101174.84;4849257;29;21028;-86
2022/04/13 04:16:37;;;;;;;12.23;2.90;;;;;;;12.19;100.00;101179.09;4864875;29;20533;-87
2022/04/13 04:19:06;;;;;;;8.40;2.20;;;;;;;12.12;100.00;101186.41;4868293;29;20446;-86
2022/04/13 04:21:35;;;;;;;13.03;2.80;;;;;;;12.12;100.00;101189.16;4867681;29;20924;-87
2022/04/13 04:24:07;;;;;;;14.73;2.77;;;;;;;12.09;100.00;101186.81;4868083;29;20458;-86
2022/04/13 04:26:36;;;;;;;14.10;2.90;;;;;;;12.13;100.00;101195.47;4883077;29;20454;-87
2022/04/13 04:29:12;;;;;;;10.53;2.13;;;;;;;12.15;100.00;101201.59;4849216;29;20457;-87
2022/04/13 04:31:49;;;;;;;11.53;2.50;;;;;;;12.15;100.00;101191.50;4882974;29;20448;-87
2022/04/13 04:34:21;;;;;;;15.93;2.50;;;;;;;12.09;100.00;101184.06;4896811;29;20442;-87
2022/04/13 04:36:51;;;;;;;15.03;2.70;;;;;;;12.17;100.00;101194.88;4895544;29;20541;-86
2022/04/13 04:39:21;;;;;;;22.17;2.50;;;;;;;12.15;100.00;101186.00;4851434;29;20454;-87
2022/04/13 04:41:50;;;;;;;14.57;2.90;;;;;;;12.15;100.00;101196.97;4899883;29;20572;-87
2022/04/13 04:44:17;;;;;;;16.87;3.37;;;;;;;12.17;100.00;101186.66;4882522;29;20446;-86
2022/04/13 04:46:45;;;;;;;13.67;2.80;;;;;;;12.19;100.00;101192.81;4867057;29;20448;-86
2022/04/13 04:49:14;;;;;;;13.33;3.20;;;;;;;12.17;100.00;101194.88;4899200;29;20506;-86
2022/04/13 04:51:42;;;;;;;13.23;3.07;;;;;;;12.20;100.00;101194.50;4867014;29;20446;-86
2022/04/13 04:54:11;;;;;;;10.90;2.07;;;;;;;12.17;100.00;101200.38;4878640;29;20501;-87
2022/04/13 04:56:48;;;;;;;7.70;2.20;;;;;;;12.16;100.00;101204.16;4867678;29;20453;-87
2022/04/13 04:59:15;;;;;;;11.23;2.20;;;;;;;12.12;100.00;101197.38;4851842;29;20446;-86
2022/04/13 05:01:44;;;;;;;13.67;2.93;;;;;;;12.10;100.00;101199.47;4852297;29;20565;-86
2022/04/13 05:04:14;;;;;;;11.93;2.30;;;;;;;12.07;100.00;101211.66;4867161;29;20454;-87
2022/04/13 05:06:47;;;;;;;9.97;2.30;;;;;;;12.04;100.00;101208.44;4868157;29;20819;-86
2022/04/13 05:09:17;;;;;;;9.10;2.60;;;;;;;11.94;100.00;101200.50;4882307;29;20485;-87
2022/04/13 05:11:48;;;;;;;15.00;2.57;;;;;;;12.03;100.00;101212.22;4852231;29;20462;-86
2022/04/13 05:14:16;;;;;;;10.27;2.70;;;;;;;11.98;100.00;101200.97;4897748;29;20453;-87
2022/04/13 05:16:45;;;;;;;14.80;2.40;;;;;;;11.95;100.00;101202.22;4897191;29;20460;-87
2022/04/13 05:19:15;;;;;;;9.13;2.47;;;;;;;12.00;100.00;101218.94;4898936;29;20521;-87
2022/04/13 05:21:44;;;;;;;9.67;2.03;;;;;;;11.91;100.00;101200.06;4896914;29;20901;-87
2022/04/13 05:24:14;;;;;;;11.53;2.50;;;;;;;11.90;100.00;101199.22;4898465;29;20473;-87
2022/04/13 05:26:45;;;;;;;11.33;2.83;;;;;;;11.93;100.00;101203.47;4866538;29;20453;-87
2022/04/13 05:29:21;;;;;;;11.73;3.13;;;;;;;11.96;100.00;101209.38;4866898;29;20537;-87
2022/04/13 05:32:02;;;;;;;16.63;2.30;;;;;;;11.93;100.00;101217.97;4867295;29;20529;-87
2022/04/13 05:34:33;;;;;;;13.60;2.30;;;;;;;11.93;100.00;101219.91;4867097;29;20475;-86
2022/04/13 05:37:03;;;;;;;7.30;2.10;;;;;;;11.87;100.00;101216.03;4881827;29;20828;-87
2022/04/13 05:39:40;;;;;;;7.70;2.37;;;;;;;11.91;100.00;101227.47;4881550;29;20886;-87
2022/04/13 05:42:11;;;;;;;14.73;2.50;;;;;;;11.92;100.00;101220.94;4881784;29;20866;-86
2022/04/13 05:44:42;;;;;;;9.77;2.77;;;;;;;11.91;100.00;101224.72;4882275;29;20465;-86
2022/04/13 05:47:10;;;;;;;12.00;2.43;;;;;;;11.88;100.00;101227.84;4882038;29;20528;-87
2022/04/13 05:49:45;;;;;;;6.80;2.03;;;;;;;11.84;100.00;101227.34;4897589;29;20457;-86
2022/04/13 05:52:22;;;;;;;18.03;2.83;;;;;;;11.81;100.00;101227.72;4866548;29;20870;-87
2022/04/13 05:54:52;;;;;;;7.80;2.20;;;;;;;11.80;100.00;101242.47;4898142;29;20473;-87
2022/04/13 05:57:26;;;;;;;13.90;3.00;;;;;;;11.79;100.00;101239.91;4866809;29;20450;-86
2022/04/13 05:59:56;;;;;;;14.00;2.30;;;;;;;11.72;100.00;101243.41;4877834;29;20973;-86
2022/04/13 06:02:27;;;;;;;9.70;2.13;;;;;;;11.75;100.00;101255.84;4847757;29;20856;-87
2022/04/13 06:05:07;;;;;;;10.67;2.10;;;;;;;11.69;100.00;101252.00;4863190;29;20520;-86
2022/04/13 06:07:54;;;;;;;10.97;2.77;;;;;;;11.65;100.00;101258.88;4847809;29;20516;-87
2022/04/13 06:10:31;;;;;;;17.60;2.70;;;;;;;11.64;100.00;101259.91;4862979;29;20443;-86
2022/04/13 06:13:00;;;;;;;8.23;1.60;;;;;;;11.55;100.00;101252.81;4847612;29;20454;-87
2022/04/13 06:15:29;;;;;;;13.23;2.80;;;;;;;11.59;100.00;101262.34;4862269;29;20476;-86
2022/04/13 06:18:00;;;;;;;12.03;3.60;;;;;;;11.59;100.00;101273.31;4862718;29;20890;-86
2022/04/13 06:20:30;;;;;;;9.03;2.67;;;;;;;11.55;100.00;101273.84;4847592;29;20950;-86
2022/04/13 06:22:59;;;;;;;7.10;2.70;;;;;;;11.57;100.00;101275.38;4831444;29;20481;-87
2022/04/13 06:25:31;;;;;;;20.57;4.40;;;;;;;11.58;100.00;101288.03;4842279;29;20481;-87
2022/04/13 06:28:01;;;;;;;17.93;3.00;;;;;;;11.60;100.00;101285.09;4840561;29;20872;-87
2022/04/13 06:30:31;;;;;;;9.73;3.10;;;;;;;11.56;100.00;101290.09;4811362;29;20449;-86
2022/04/13 06:33:07;;;;;;;12.30;2.97;;;;;;;11.55;100.00;101287.53;4826097;29;20452;-87
2022/04/13 06:35:36;;;;;;;17.30;2.60;;;;;;;11.56;100.00;101306.53;4810221;29;20476;-86
2022/04/13 06:38:04;;;;;;;7.57;2.70;;;;;;;11.53;100.00;101301.44;4840590;29;21028;-87
2022/04/13 06:40:32;;;;;;;15.63;2.77;;;;;;;11.46;100.00;101297.75;4811270;29;20456;-87
2022/04/13 06:43:00;;;;;;;8.07;2.90;;;;;;;11.53;100.00;101312.41;4811281;29;20440;-87
2022/04/13 06:45:29;;;;;;;12.77;3.63;;;;;;;11.54;100.00;101314.09;4811297;29;20456;-86
2022/04/13 06:48:04;;;;;;;14.20;2.70;;;;;;;11.59;100.00;101311.63;4811008;29;20452;-87
2022/04/13 06:50:34;;;;;;;13.67;3.00;;;;;;;11.70;100.00;101313.94;4825753;29;20543;-86
2022/04/13 06:53:13;;;;;;;13.73;2.90;;;;;;;11.93;100.00;101318.50;4811301;29;20448;-87
2022/04/13 06:55:43;;;;;;;15.70;3.20;;;;;;;12.17;100.00;101331.91;4831213;29;20879;-87
2022/04/13 06:58:12;;;;;;;18.13;3.80;;;;;;;12.31;100.00;101309.13;4841238;29;20448;-86
2022/04/13 07:00:39;;;;;;;23.93;3.77;;;;;;;12.53;100.00;101325.59;4841243;29;20468;-87
2022/04/13 07:03:17;;;;;;;17.27;3.63;;;;;;;12.71;100.00;101334.25;4843270;29;20444;-86
2022/04/13 07:05:47;;;;;;;27.37;5.10;;;;;;;12.80;100.00;101322.13;4812038;29;20457;-86
2022/04/13 07:08:19;;;;;;;24.27;3.53;;;;;;;12.97;100.00;101333.72;4829143;29;20452;-87
2022/04/13 07:10:49;;;;;;;12.10;3.87;;;;;;;13.04;100.00;101319.03;4844015;29;20446;-86
2022/04/13 07:13:23;;;;;;;12.37;2.83;;;;;;;13.17;100.00;101329.31;4810904;29;20532;-86
2022/04/13 07:15:53;;;;;;;17.87;3.10;;;;;;;13.22;100.00;101325.97;4841417;29;20961;-87
2022/04/13 07:18:36;;;;;;;18.60;3.17;;;;;;;13.30;100.00;101334.91;4844040;29;20806;-87
2022/04/13 07:21:10;;;;;;;12.80;3.73;;;;;;;13.40;100.00;101337.34;4828700;29;20475;-87
2022/04/13 07:23:46;;;;;;;13.63;2.60;;;;;;;13.48;100.00;101342.66;4843253;29;20491;-87
2022/04/13 07:26:20;;;;;;;15.97;2.97;;;;;;;13.57;100.00;101341.50;4843948;29;20444;-87
2022/04/13 07:29:03;;;;;;;11.90;2.77;;;;;;;13.64;100.00;101353.41;4844400;29;20508;-87
2022/04/13 07:31:34;;;;;;;16.20;3.67;;;;;;;13.71;100.00;101353.44;4811392;29;20440;-87
2022/04/13 07:34:11;;;;;;;16.43;2.80;;;;;;;13.78;100.00;101349.69;4843770;29;20952;-87
2022/04/13 07:36:42;;;;;;;13.20;2.57;;;;;;;13.81;100.00;101346.56;4834993;29;20448;-87
2022/04/13 07:39:10;;;;;;;19.43;3.33;;;;;;;13.91;100.00;101345.31;4848392;29;20461;-87
2022/04/13 07:41:42;;;;;;;25.73;3.67;;;;;;;13.94;100.00;101348.53;4828999;29;21026;-87
2022/04/13 07:44:15;;;;;;;14.67;4.23;;;;;;;14.08;100.00;101360.44;4844689;29;21012;-87
2022/04/13 07:46:45;;;;;;;14.07;3.10;;;;;;;14.13;100.00;101357.94;4843401;29;20456;-87
2022/04/13 07:49:13;;;;;;;16.20;3.20;;;;;;;14.21;100.00;101363.31;4844195;29;20452;-88
2022/04/13 07:51:48;;;;;;;17.43;3.43;;;;;;;14.26;100.00;101357.16;4827472;29;20459;-86
2022/04/13 07:54:18;;;;;;;15.67;4.90;;;;;;;14.33;100.00;101369.91;4857767;29;20456;-87
2022/04/13 07:57:08;;;;;;;19.83;4.07;;;;;;;14.31;100.00;101355.50;4843166;29;21025;-86
2022/04/13 07:59:37;;;;;;;18.70;4.07;;;;;;;14.37;100.00;101356.63;4844252;29;20443;-88
2022/04/13 08:02:08;;;;;;;20.27;3.87;;;;;;;14.42;100.00;101363.25;4842341;29;20574;-87
2022/04/13 08:04:37;;;;;;;9.17;3.80;;;;;;;14.46;100.00;101356.25;4827248;29;20452;-87
2022/04/13 08:07:07;;;;;;;15.43;3.70;;;;;;;14.54;100.00;101369.00;4842167;29;20465;-87
2022/04/13 08:09:37;;;;;;;18.27;3.20;;;;;;;14.59;100.00;101372.00;4843844;29;20512;-87
2022/04/13 08:12:50;;;;;;;9.93;2.73;;;;;;;14.70;100.00;101373.28;4840324;29;20884;-91
2022/04/13 08:15:17;;;;;;;6.60;2.50;;;;;;;14.75;100.00;101368.03;4851135;29;20558;-87
2022/04/13 08:17:47;;;;;;;11.40;2.97;;;;;;;14.82;100.00;101382.63;4842702;29;20444;-87
2022/04/13 08:20:16;;;;;;;14.70;2.97;;;;;;;14.85;100.00;101376.72;4826870;29;20480;-88
2022/04/13 08:22:47;;;;;;;10.50;3.40;;;;;;;14.90;100.00;101381.63;4827570;29;20581;-87
2022/04/13 08:25:16;;;;;;;12.67;2.80;;;;;;;14.93;100.00;101386.72;4824482;29;20449;-87
2022/04/13 08:27:47;;;;;;;14.13;2.57;;;;;;;14.97;100.00;101388.88;4826395;29;20463;-88
2022/04/13 08:30:17;;;;;;;5.67;1.97;;;;;;;15.05;99.96;101396.91;4827277;29;20453;-87
2022/04/13 08:32:48;;;;;;;17.63;3.73;;;;;;;15.03;99.14;101390.75;4842322;29;20460;-88
2022/04/13 08:35:15;;;;;;;13.10;2.47;;;;;;;15.17;99.12;101405.44;4842041;29;21031;-88
2022/04/13 08:37:43;;;;;;;9.47;2.90;;;;;;;15.23;97.93;101407.34;4812228;29;20488;-87
2022/04/13 08:40:12;;;;;;;9.17;2.37;;;;;;;15.25;98.22;101394.22;4812386;29;20460;-88
2022/04/13 08:43:03;;;;;;;18.10;2.80;;;;;;;15.51;97.63;101412.69;4811911;29;20634;-88
2022/04/13 08:46:11;;;;;;;7.93;2.33;;;;;;;15.71;96.63;101430.13;4840907;29;20457;-89
2022/04/13 08:48:39;;;;;;;13.00;2.03;;;;;;;15.91;95.29;101423.78;4842150;29;20448;-88
2022/04/13 08:51:12;;;;;;;20.57;2.73;;;;;;;16.06;92.41;101424.41;4827331;29;20479;-87
2022/04/13 08:53:40;;;;;;;12.90;2.50;;;;;;;16.22;92.39;101415.69;4827174;29;20560;-88
2022/04/13 08:56:09;;;;;;;5.00;1.53;;;;;;;16.40;92.28;101423.28;4823414;29;20875;-88
2022/04/13 08:58:57;;;;;;;17.50;2.80;;;;;;;16.63;91.10;101433.84;4826649;29;20448;-87
2022/04/13 09:01:40;;;;;;;18.70;2.47;;;;;;;16.75;90.41;101432.97;4842739;29;20516;-88
2022/04/13 09:04:11;;;;;;;5.80;1.80;;;;;;;16.88;88.94;101440.38;4804051;29;20509;-87
2022/04/13 09:06:39;;;;;;;17.83;2.53;;;;;;;17.04;88.92;101442.66;4841231;29;20464;-90
2022/04/13 09:09:12;;;;;;;16.40;2.80;;;;;;;16.87;87.47;101441.44;4842987;29;20449;-92
2022/04/13 09:12:06;;;;;;;12.83;2.50;;;;;;;16.54;88.20;101433.25;4828432;29;20452;-92
2022/04/13 09:14:34;;;;;;;10.80;2.30;;;;;;;16.31;88.74;101441.16;4828328;29;20983;-92
2022/04/13 09:17:05;;;;;;;13.20;3.27;;;;;;;16.05;90.09;101430.97;4812452;29;20453;-91
2022/04/13 09:19:42;;;;;;;16.87;2.57;;;;;;;16.01;91.26;101438.81;4830473;29;20959;-91
2022/04/13 09:22:11;;;;;;;22.40;2.80;;;;;;;15.91;90.03;101435.66;4826576;29;20511;-91
2022/04/13 09:24:41;;;;;;;13.53;3.00;;;;;;;15.94;90.44;101450.94;4827076;29;20443;-90
2022/04/13 09:27:20;;;;;;;5.83;1.70;;;;;;;16.16;91.05;101457.94;4814061;29;20516;-91
2022/04/13 09:29:51;;;;;;;14.50;2.57;;;;;;;16.22;90.25;101433.09;4828967;29;20527;-90
2022/04/13 09:32:20;;;;;;;11.70;2.53;;;;;;;16.46;90.31;101448.13;4827958;29;20837;-92
2022/04/13 09:35:16;;;;;;;13.40;2.30;;;;;;;16.72;87.07;101474.00;4826501;29;20932;-94
2022/04/13 09:37:44;;;;;;;8.60;1.87;;;;;;;16.74;86.78;101442.31;4839588;29;20445;-92
2022/04/13 09:40:37;;;;;;;11.60;2.23;;;;;;;17.06;85.72;101461.78;4839170;29;20543;-92
2022/04/13 09:43:06;;;;;;;12.80;1.97;;;;;;;17.20;85.34;101446.81;4823565;29;20492;-90
2022/04/13 09:45:43;;;;;;;10.63;1.77;;;;;;;17.50;85.49;101458.16;4824596;29;20510;-90
2022/04/13 09:48:21;;;;;;;14.03;2.70;;;;;;;17.79;85.10;101467.75;4795461;29;20965;-89
2022/04/13 09:50:53;;;;;;;13.20;2.37;;;;;;;17.94;82.58;101471.88;4820069;29;20807;-87
2022/04/13 09:53:25;;;;;;;10.50;2.40;;;;;;;17.82;81.75;101472.84;4838689;29;20962;-91
2022/04/13 09:55:55;;;;;;;12.37;2.30;;;;;;;17.56;81.66;101457.22;4812088;29;20445;-90
2022/04/13 09:58:33;;;;;;;5.67;1.63;;;;;;;17.45;83.35;101463.47;4839444;29;20861;-89
2022/04/13 10:01:02;;;;;;;8.70;1.70;;;;;;;17.26;82.65;101462.53;4826683;29;20999;-90
2022/04/13 10:03:30;;;;;;;6.63;2.03;;;;;;;17.27;81.55;101472.50;4807456;29;20584;-89
2022/04/13 10:05:59;;;;;;;17.23;2.20;;;;;;;17.34;81.21;101462.25;4805528;29;20506;-89
2022/04/13 10:08:30;;;;;;;9.97;1.87;;;;;;;17.65;81.04;101467.00;4823277;29;20449;-89
2022/04/13 10:10:59;;;;;;;8.30;2.33;;;;;;;17.75;81.42;101452.66;4811250;29;20459;-89
2022/04/13 10:13:43;;;;;;;6.60;1.17;;;;;;;18.07;80.47;101462.66;4826574;29;20456;-89
2022/04/13 10:16:14;;;;;;;8.70;1.80;;;;;;;18.26;80.88;101452.47;4826304;29;20464;-88
2022/04/13 10:18:53;;;;;;;7.90;1.87;;;;;;;18.43;77.90;101464.66;4808098;29;20821;-89
2022/04/13 10:21:49;;;;;;;12.20;2.10;;;;;;;18.67;78.20;101473.16;4836703;29;20499;-88
2022/04/13 10:24:32;;;;;;;13.37;1.90;;;;;;;18.72;76.28;101456.69;4862899;29;20474;-89
2022/04/13 10:27:16;;;;;;;10.60;1.90;;;;;;;18.80;76.60;101467.50;4859719;29;20442;-89
2022/04/13 10:29:53;;;;;;;10.30;1.80;;;;;;;18.77;76.85;101465.19;4848586;29;20431;-89
2022/04/13 10:32:25;;;;;;;17.23;2.33;;;;;;;18.95;75.20;101473.50;4847913;29;20510;-90
2022/04/13 10:34:57;;;;;;;8.70;1.70;;;;;;;19.01;74.47;101444.88;4848881;29;20456;-92
2022/04/13 10:37:38;;;;;;;5.60;2.07;;;;;;;19.27;74.68;101474.97;4852549;29;20458;-92
2022/04/13 10:40:07;;;;;;;11.40;2.17;;;;;;;19.29;75.08;101447.88;4851242;29;21005;-89
2022/04/13 10:42:37;;;;;;;14.27;2.00;;;;;;;19.32;72.72;101450.19;4835804;29;20485;-89
2022/04/13 10:45:07;;;;;;;6.23;1.80;;;;;;;19.43;71.95;101454.09;4866586;29;20477;-90
2022/04/13 10:47:56;;;;;;;6.83;1.73;;;;;;;19.62;72.43;101455.78;4867113;29;20892;-89
2022/04/13 10:50:51;;;;;;;10.20;1.90;;;;;;;19.87;73.00;101460.28;4864996;29;20969;-89
2022/04/13 10:53:39;;;;;;;13.33;2.53;;;;;;;20.04;71.41;101454.88;4897518;29;20450;-90
2022/04/13 10:56:11;;;;;;;8.60;1.97;;;;;;;19.99;70.41;101447.28;4884731;29;20454;-89
2022/04/13 10:58:50;;;;;;;7.00;1.90;;;;;;;20.00;70.67;101449.84;4883475;29;20456;-89
2022/04/13 11:01:22;;;;;;;18.33;3.50;;;;;;;20.05;70.88;101442.69;4896738;29;20450;-89
2022/04/13 11:03:50;;;;;;;9.97;1.87;;;;;;;20.07;71.07;101448.84;4866498;29;20569;-90
2022/04/13 11:06:18;;;;;;;10.00;2.40;;;;;;;20.04;70.94;101432.69;4866561;29;20506;-90
2022/04/13 11:09:02;;;;;;;8.10;2.40;;;;;;;20.21;70.48;101433.66;4866315;29;20454;-90
2022/04/13 11:11:31;;;;;;;12.50;2.33;;;;;;;20.29;70.91;101441.63;4895572;29;20514;-90
2022/04/13 11:13:59;;;;;;;9.57;1.80;;;;;;;20.25;72.01;101430.16;4866057;29;20446;-89
2022/04/13 11:16:28;;;;;;;15.07;2.53;;;;;;;20.20;71.94;101426.44;4865943;29;20880;-89
2022/04/13 11:19:05;;;;;;;6.57;1.30;;;;;;;19.98;69.25;101445.59;4866612;29;20443;-90
2022/04/13 11:21:34;;;;;;;10.10;2.20;;;;;;;19.88;69.82;101426.75;4882080;29;20446;-89
2022/04/13 11:24:03;;;;;;;10.63;1.60;;;;;;;20.21;70.15;101417.00;4881425;29;20901;-89
2022/04/13 11:26:36;;;;;;;14.37;3.00;;;;;;;20.40;70.16;101421.38;4881163;29;20446;-89
2022/04/13 11:29:17;;;;;;;9.83;1.77;;;;;;;20.45;69.94;101392.88;4896760;29;20451;-89
2022/04/13 11:32:07;;;;;;;11.63;2.43;;;;;;;20.65;69.49;101413.63;4882252;29;20445;-89
2022/04/13 11:34:45;;;;;;;14.57;2.70;;;;;;;20.72;69.59;101401.53;4865561;29;20515;-89
2022/04/13 11:37:33;;;;;;;15.17;2.70;;;;;;;20.65;69.94;101388.63;4896616;29;20446;-89
2022/04/13 11:40:06;;;;;;;8.67;1.53;;;;;;;20.72;70.11;101385.72;4879032;29;20533;-90